Oushoumaru — JL6476 — position and weather

sailwx.info

Track history (hours):
 
Tides and Currents Weather Stations Pressure Air Temp Water Temp Dewpoint Dewpoint Depression Visibility Wind Speed Wind Dir Waves Ship Positions

Oushoumaru

Last reported at 2018-Feb-23 06:31 UTC. Time now 2018-Feb-23 22:16 UTC.
Position N 35°03' E 139°34'.

Length 76 m.

Type: Cargo ship. MMSI: 431500527.

Date/timePositionNaut miles runAvg speedWind from/ knotsBaromVisibWave heightAir tempDewpointWater temp
2018-Feb-23 06:31N 35°03' E 139°34'312.1
2018-Feb-23 06:14N 35°05' E 139°38'311.9
2018-Feb-23 06:00N 35°06' E 139°41'611.7
2018-Feb-23 05:29N 35°11' E 139°45'611.7
2018-Feb-23 05:00N 35°17' E 139°45'611.5
2018-Feb-23 04:30N 35°22' E 139°42'611.4
2018-Feb-23 04:00N 35°27' E 139°46'7 0.2
2018-Feb-21 15:13N 35°31' E 139°53'210.4
2018-Feb-21 15:00N 35°29' E 139°52'510.1
2018-Feb-21 14:28N 35°25' E 139°47'510.0
2018-Feb-21 13:59N 35°21' E 139°45'18 9.3
2018-Feb-21 12:01N 35°03' E 139°40'  
2018-Feb-18 10:08N 35°13' E 139°46'212.3
2018-Feb-18 09:59N 35°15' E 139°46'612.1
2018-Feb-18 09:30N 35°20' E 139°43'611.1
2018-Feb-18 09:00N 35°25' E 139°45'8 0.4
2018-Feb-17 15:25N 35°30' E 139°52'4 9.6
2018-Feb-17 15:00N 35°27' E 139°49'5 9.5
2018-Feb-17 14:30N 35°23' E 139°46'5 8.7
2018-Feb-17 13:58N 35°18' E 139°45'6 8.5
2018-Feb-17 13:16N 35°12' E 139°47'3 9.0
2018-Feb-17 12:57N 35°10' E 139°46'10 9.6
2018-Feb-17 11:53N 35°01' E 139°39'3310.7
2018-Feb-17 08:46N 34°43' E 139°05'310.5
2018-Feb-17 08:29N 34°41' E 139°02'209 9.2
2018-Feb-16 09:55N 33°49' E 134°58'13 0.6
2018-Feb-15 13:12N 33°59' E 134°48'1011.8
2018-Feb-15 12:22N 34°07' E 134°54'411.8
2018-Feb-15 12:00N 34°11' E 134°58'611.7
2018-Feb-15 11:30N 34°15' E 135°02'611.8
2018-Feb-15 11:00N 34°21' E 135°05'611.7
2018-Feb-15 10:30N 34°25' E 135°09'611.7
2018-Feb-15 10:00N 34°30' E 135°13'611.8
2018-Feb-15 09:30N 34°35' E 135°18'510.9
2018-Feb-15 09:00N 34°38' E 135°23'2 4.4
2018-Feb-15 08:29N 34°37' E 135°26'0 0.0
2018-Feb-15 07:59N 34°37' E 135°26'0 0.0
2018-Feb-15 07:29N 34°37' E 135°26'0 0.0
2018-Feb-15 06:59N 34°37' E 135°26'0 0.0
2018-Feb-15 06:23N 34°37' E 135°26'0 0.0
2018-Feb-15 05:59N 34°37' E 135°26'0 0.0
2018-Feb-15 05:29N 34°37' E 135°26'0 0.0
2018-Feb-15 04:59N 34°37' E 135°26'0 0.0
2018-Feb-15 04:29N 34°37' E 135°26'0 0.0
2018-Feb-15 03:59N 34°37' E 135°26'0 0.0
2018-Feb-15 03:29N 34°37' E 135°26'0 0.0
2018-Feb-15 02:59N 34°37' E 135°26'0 0.3
2018-Feb-15 02:29N 34°37' E 135°26'0 0.3
2018-Feb-15 01:59N 34°37' E 135°26'2 3.7
2018-Feb-15 01:30N 34°38' E 135°24'1 1.7
2018-Feb-15 01:00N 34°37' E 135°23'3 6.1
2018-Feb-15 00:30N 34°35' E 135°20'510.5
2018-Feb-15 00:00N 34°32' E 135°15'611.4
2018-Feb-14 23:30N 34°27' E 135°11'611.9
2018-Feb-14 23:00N 34°23' E 135°07'611.8
2018-Feb-14 22:30N 34°17' E 135°04'611.5
2018-Feb-14 22:00N 34°11' E 135°03'95 5.8
2018-Feb-14 05:38N 34°39' E 136°53'210.5
2018-Feb-14 05:29N 34°40' E 136°52'510.9
2018-Feb-14 05:00N 34°45' E 136°48'610.8
2018-Feb-14 04:29N 34°50' E 136°46'510.8
2018-Feb-14 04:00N 34°55' E 136°46'511.0
2018-Feb-14 03:30N 35°00' E 136°49'5 9.3
2018-Feb-14 03:00N 35°04' E 136°52'1 2.0
2018-Feb-14 02:27N 35°04' E 136°53'0 0.0
2018-Feb-14 01:57N 35°04' E 136°53'0 0.1
2018-Feb-14 01:30N 35°04' E 136°53'0 0.1
2018-Feb-14 01:00N 35°04' E 136°53'0 0.1
2018-Feb-14 00:30N 35°04' E 136°53'0 0.1
2018-Feb-13 23:57N 35°04' E 136°53'0 0.1
2018-Feb-13 23:27N 35°04' E 136°53'0 0.0
2018-Feb-13 22:57N 35°04' E 136°53'0 0.0
2018-Feb-13 22:30N 35°04' E 136°53'0 0.1
2018-Feb-13 22:00N 35°04' E 136°53'1 1.2
2018-Feb-13 21:28N 35°05' E 136°53'0 0.1
2018-Feb-13 20:58N 35°05' E 136°53'0 0.0
2018-Feb-13 20:28N 35°05' E 136°53'0 0.0
2018-Feb-13 19:58N 35°05' E 136°53'0 0.0
2018-Feb-13 19:28N 35°05' E 136°53'0 0.0
2018-Feb-13 18:58N 35°05' E 136°53'0 0.0
2018-Feb-13 18:28N 35°05' E 136°53'0 0.0
2018-Feb-13 17:58N 35°05' E 136°53'0 0.0
2018-Feb-13 17:28N 35°05' E 136°53'0 0.0
2018-Feb-13 16:58N 35°05' E 136°53'0 0.1
2018-Feb-13 16:28N 35°05' E 136°53'0 0.1
2018-Feb-13 15:58N 35°05' E 136°53'0 0.0
2018-Feb-13 15:28N 35°05' E 136°53'0 0.0
2018-Feb-13 14:58N 35°05' E 136°53'0 0.1
2018-Feb-13 14:28N 35°05' E 136°53'0 0.0
2018-Feb-13 13:58N 35°05' E 136°53'0 0.1
2018-Feb-13 13:28N 35°05' E 136°53'0 0.1
2018-Feb-13 12:58N 35°05' E 136°53'0 0.0
2018-Feb-13 12:28N 35°05' E 136°53'0 0.0
2018-Feb-13 11:58N 35°05' E 136°53'0 0.0
2018-Feb-13 11:28N 35°05' E 136°53'0 0.0
2018-Feb-13 10:58N 35°05' E 136°53'0 0.0
2018-Feb-13 10:28N 35°05' E 136°53'0 0.0
2018-Feb-13 09:58N 35°05' E 136°53'0 0.1
2018-Feb-13 09:28N 35°05' E 136°53'0 0.0
2018-Feb-13 08:58N 35°05' E 136°53'0 0.0
2018-Feb-13 08:28N 35°05' E 136°53'0 0.0
2018-Feb-13 07:58N 35°05' E 136°53'0 0.0
2018-Feb-13 07:28N 35°05' E 136°53'0 0.0
2018-Feb-13 06:58N 35°05' E 136°53'  
Track history (hours):
 
Tides and Currents Weather Stations Pressure Air Temp Water Temp Dewpoint Dewpoint Depression Visibility Wind Speed Wind Dir Waves Ship Positions

Oushoumaru

Last reported at 2018-Feb-23 06:31 UTC. Time now 2018-Feb-23 22:16 UTC.
Position N 35°03' E 139°34'.

Length 76 m.

Type: Cargo ship. MMSI: 431500527.

Date/timePositionNaut miles runAvg speedWind from/ knotsBaromVisibWave heightAir tempDewpointWater temp
2018-Feb-23 06:31N 35°03' E 139°34'312.1
2018-Feb-23 06:14N 35°05' E 139°38'311.9
2018-Feb-23 06:00N 35°06' E 139°41'611.7
2018-Feb-23 05:29N 35°11' E 139°45'611.7
2018-Feb-23 05:00N 35°17' E 139°45'611.5
2018-Feb-23 04:30N 35°22' E 139°42'611.4
2018-Feb-23 04:00N 35°27' E 139°46'7 0.2
2018-Feb-21 15:13N 35°31' E 139°53'210.4
2018-Feb-21 15:00N 35°29' E 139°52'510.1
2018-Feb-21 14:28N 35°25' E 139°47'510.0
2018-Feb-21 13:59N 35°21' E 139°45'18 9.3
2018-Feb-21 12:01N 35°03' E 139°40'  
2018-Feb-18 10:08N 35°13' E 139°46'212.3
2018-Feb-18 09:59N 35°15' E 139°46'612.1
2018-Feb-18 09:30N 35°20' E 139°43'611.1
2018-Feb-18 09:00N 35°25' E 139°45'8 0.4
2018-Feb-17 15:25N 35°30' E 139°52'4 9.6
2018-Feb-17 15:00N 35°27' E 139°49'5 9.5
2018-Feb-17 14:30N 35°23' E 139°46'5 8.7
2018-Feb-17 13:58N 35°18' E 139°45'6 8.5
2018-Feb-17 13:16N 35°12' E 139°47'3 9.0
2018-Feb-17 12:57N 35°10' E 139°46'10 9.6
2018-Feb-17 11:53N 35°01' E 139°39'3310.7
2018-Feb-17 08:46N 34°43' E 139°05'310.5
2018-Feb-17 08:29N 34°41' E 139°02'209 9.2
2018-Feb-16 09:55N 33°49' E 134°58'13 0.6
2018-Feb-15 13:12N 33°59' E 134°48'1011.8
2018-Feb-15 12:22N 34°07' E 134°54'411.8
2018-Feb-15 12:00N 34°11' E 134°58'611.7
2018-Feb-15 11:30N 34°15' E 135°02'611.8
2018-Feb-15 11:00N 34°21' E 135°05'611.7
2018-Feb-15 10:30N 34°25' E 135°09'611.7
2018-Feb-15 10:00N 34°30' E 135°13'611.8
2018-Feb-15 09:30N 34°35' E 135°18'510.9
2018-Feb-15 09:00N 34°38' E 135°23'2 4.4
2018-Feb-15 08:29N 34°37' E 135°26'0 0.0
2018-Feb-15 07:59N 34°37' E 135°26'0 0.0
2018-Feb-15 07:29N 34°37' E 135°26'0 0.0
2018-Feb-15 06:59N 34°37' E 135°26'0 0.0
2018-Feb-15 06:23N 34°37' E 135°26'0 0.0
2018-Feb-15 05:59N 34°37' E 135°26'0 0.0
2018-Feb-15 05:29N 34°37' E 135°26'0 0.0
2018-Feb-15 04:59N 34°37' E 135°26'0 0.0
2018-Feb-15 04:29N 34°37' E 135°26'0 0.0
2018-Feb-15 03:59N 34°37' E 135°26'0 0.0
2018-Feb-15 03:29N 34°37' E 135°26'0 0.0
2018-Feb-15 02:59N 34°37' E 135°26'0 0.3
2018-Feb-15 02:29N 34°37' E 135°26'0 0.3
2018-Feb-15 01:59N 34°37' E 135°26'2 3.7
2018-Feb-15 01:30N 34°38' E 135°24'1 1.7
2018-Feb-15 01:00N 34°37' E 135°23'3 6.1
2018-Feb-15 00:30N 34°35' E 135°20'510.5
2018-Feb-15 00:00N 34°32' E 135°15'611.4
2018-Feb-14 23:30N 34°27' E 135°11'611.9
2018-Feb-14 23:00N 34°23' E 135°07'611.8
2018-Feb-14 22:30N 34°17' E 135°04'611.5
2018-Feb-14 22:00N 34°11' E 135°03'95 5.8
2018-Feb-14 05:38N 34°39' E 136°53'210.5
2018-Feb-14 05:29N 34°40' E 136°52'510.9
2018-Feb-14 05:00N 34°45' E 136°48'610.8
2018-Feb-14 04:29N 34°50' E 136°46'510.8
2018-Feb-14 04:00N 34°55' E 136°46'511.0
2018-Feb-14 03:30N 35°00' E 136°49'5 9.3
2018-Feb-14 03:00N 35°04' E 136°52'1 2.0
2018-Feb-14 02:27N 35°04' E 136°53'0 0.0
2018-Feb-14 01:57N 35°04' E 136°53'0 0.1
2018-Feb-14 01:30N 35°04' E 136°53'0 0.1
2018-Feb-14 01:00N 35°04' E 136°53'0 0.1
2018-Feb-14 00:30N 35°04' E 136°53'0 0.1
2018-Feb-13 23:57N 35°04' E 136°53'0 0.1
2018-Feb-13 23:27N 35°04' E 136°53'0 0.0
2018-Feb-13 22:57N 35°04' E 136°53'0 0.0
2018-Feb-13 22:30N 35°04' E 136°53'0 0.1
2018-Feb-13 22:00N 35°04' E 136°53'1 1.2
2018-Feb-13 21:28N 35°05' E 136°53'0 0.1
2018-Feb-13 20:58N 35°05' E 136°53'0 0.0
2018-Feb-13 20:28N 35°05' E 136°53'0 0.0
2018-Feb-13 19:58N 35°05' E 136°53'0 0.0
2018-Feb-13 19:28N 35°05' E 136°53'0 0.0
2018-Feb-13 18:58N 35°05' E 136°53'0 0.0
2018-Feb-13 18:28N 35°05' E 136°53'0 0.0
2018-Feb-13 17:58N 35°05' E 136°53'0 0.0
2018-Feb-13 17:28N 35°05' E 136°53'0 0.0
2018-Feb-13 16:58N 35°05' E 136°53'0 0.1
2018-Feb-13 16:28N 35°05' E 136°53'0 0.1
2018-Feb-13 15:58N 35°05' E 136°53'0 0.0
2018-Feb-13 15:28N 35°05' E 136°53'0 0.0
2018-Feb-13 14:58N 35°05' E 136°53'0 0.1
2018-Feb-13 14:28N 35°05' E 136°53'0 0.0
2018-Feb-13 13:58N 35°05' E 136°53'0 0.1
2018-Feb-13 13:28N 35°05' E 136°53'0 0.1
2018-Feb-13 12:58N 35°05' E 136°53'0 0.0
2018-Feb-13 12:28N 35°05' E 136°53'0 0.0
2018-Feb-13 11:58N 35°05' E 136°53'0 0.0
2018-Feb-13 11:28N 35°05' E 136°53'0 0.0
2018-Feb-13 10:58N 35°05' E 136°53'0 0.0
2018-Feb-13 10:28N 35°05' E 136°53'0 0.0
2018-Feb-13 09:58N 35°05' E 136°53'0 0.1
2018-Feb-13 09:28N 35°05' E 136°53'0 0.0
2018-Feb-13 08:58N 35°05' E 136°53'0 0.0
2018-Feb-13 08:28N 35°05' E 136°53'0 0.0
2018-Feb-13 07:58N 35°05' E 136°53'0 0.0
2018-Feb-13 07:28N 35°05' E 136°53'0 0.0
2018-Feb-13 06:58N 35°05' E 136°53'  

Dump ship's entire track history